sensor_id;sensor_type;location;lat;lon;timestamp;pressure;altitude;pressure_sealevel;temperature;humidity
75656;BME280;64252;51.094;13.714;2023-07-20T00:00:52;99885.91;;;18.45;91.22
75656;BME280;64252;51.094;13.714;2023-07-20T00:03:19;99885.91;;;18.45;92.03
75656;BME280;64252;51.094;13.714;2023-07-20T00:05:49;99894.81;;;18.34;91.02
75656;BME280;64252;51.094;13.714;2023-07-20T00:08:16;99890.75;;;18.19;90.79
75656;BME280;64252;51.094;13.714;2023-07-20T00:10:42;99890.91;;;18.28;90.70
75656;BME280;64252;51.094;13.714;2023-07-20T00:13:09;99887.34;;;18.24;91.34
75656;BME280;64252;51.094;13.714;2023-07-20T00:15:35;99893.97;;;18.21;91.25
75656;BME280;64252;51.094;13.714;2023-07-20T00:18:01;99892.63;;;18.26;90.54
75656;BME280;64252;51.094;13.714;2023-07-20T00:20:27;99890.56;;;18.26;91.25
75656;BME280;64252;51.094;13.714;2023-07-20T00:22:52;99878.91;;;18.33;91.29
75656;BME280;64252;51.094;13.714;2023-07-20T00:25:20;99884.75;;;18.30;91.61
75656;BME280;64252;51.094;13.714;2023-07-20T00:27:46;99879.88;;;18.14;91.80
75656;BME280;64252;51.094;13.714;2023-07-20T00:30:12;99886.44;;;18.27;92.14
75656;BME280;64252;51.094;13.714;2023-07-20T00:32:38;99887.16;;;18.44;91.06
75656;BME280;64252;51.094;13.714;2023-07-20T00:35:04;99884.06;;;18.38;91.28
75656;BME280;64252;51.094;13.714;2023-07-20T00:37:30;99885.91;;;18.45;90.94
75656;BME280;64252;51.094;13.714;2023-07-20T00:39:56;99887.28;;;18.40;91.02
75656;BME280;64252;51.094;13.714;2023-07-20T00:42:24;99899.41;;;18.45;90.76
75656;BME280;64252;51.094;13.714;2023-07-20T00:44:51;99901.34;;;18.48;91.92
75656;BME280;64252;51.094;13.714;2023-07-20T00:47:17;99895.56;;;18.64;90.38
75656;BME280;64252;51.094;13.714;2023-07-20T00:49:42;99897.31;;;18.74;90.73
75656;BME280;64252;51.094;13.714;2023-07-20T00:52:10;99897.88;;;18.69;90.19
75656;BME280;64252;51.094;13.714;2023-07-20T00:54:40;99910.56;;;18.68;89.93
75656;BME280;64252;51.094;13.714;2023-07-20T00:57:07;99901.47;;;18.44;90.04
75656;BME280;64252;51.094;13.714;2023-07-20T00:59:34;99896.69;;;18.54;90.08
75656;BME280;64252;51.094;13.714;2023-07-20T01:02:02;99893.06;;;18.24;89.82
75656;BME280;64252;51.094;13.714;2023-07-20T01:04:28;99892.88;;;18.31;90.69
75656;BME280;64252;51.094;13.714;2023-07-20T01:07:11;99890.56;;;18.26;90.67
75656;BME280;64252;51.094;13.714;2023-07-20T01:09:58;99890.78;;;18.32;89.87
75656;BME280;64252;51.094;13.714;2023-07-20T01:12:33;99895.38;;;18.29;90.02
75656;BME280;64252;51.094;13.714;2023-07-20T01:15:01;99899.19;;;18.10;89.92
75656;BME280;64252;51.094;13.714;2023-07-20T01:17:27;99892.16;;;18.27;90.16
75656;BME280;64252;51.094;13.714;2023-07-20T01:19:52;99899.69;;;18.21;90.51
75656;BME280;64252;51.094;13.714;2023-07-20T01:34:29;99921.34;;;17.77;91.19
75656;BME280;64252;51.094;13.714;2023-07-20T01:36:56;99911.53;;;17.78;91.80
75656;BME280;64252;51.094;13.714;2023-07-20T01:39:24;99910.22;;;17.67;90.66
75656;BME280;64252;51.094;13.714;2023-07-20T01:41:50;99905.94;;;17.75;91.11
75656;BME280;64252;51.094;13.714;2023-07-20T01:44:16;99905.56;;;17.73;90.62
75656;BME280;64252;51.094;13.714;2023-07-20T01:46:41;99914.94;;;17.73;89.21
75656;BME280;64252;51.094;13.714;2023-07-20T01:49:07;99914.13;;;17.73;90.16
75656;BME280;64252;51.094;13.714;2023-07-20T01:51:33;99912.53;;;17.72;90.52
75656;BME280;64252;51.094;13.714;2023-07-20T01:53:59;99902.00;;;17.69;91.79
75656;BME280;64252;51.094;13.714;2023-07-20T01:56:25;99908.94;;;17.51;91.08
75656;BME280;64252;51.094;13.714;2023-07-20T01:58:51;99906.09;;;17.51;90.96
75656;BME280;64252;51.094;13.714;2023-07-20T02:01:17;99919.50;;;17.38;91.40
75656;BME280;64252;51.094;13.714;2023-07-20T02:03:42;99909.75;;;17.52;91.20
75656;BME280;64252;51.094;13.714;2023-07-20T02:06:08;99908.94;;;17.51;92.03
75656;BME280;64252;51.094;13.714;2023-07-20T02:08:34;99900.75;;;17.53;92.25
75656;BME280;64252;51.094;13.714;2023-07-20T02:10:59;99908.94;;;17.51;91.65
75656;BME280;64252;51.094;13.714;2023-07-20T02:13:25;99909.63;;;17.59;91.01
75656;BME280;64252;51.094;13.714;2023-07-20T02:15:51;99910.22;;;17.67;91.37
75656;BME280;64252;51.094;13.714;2023-07-20T02:18:17;99912.19;;;17.70;91.74
75656;BME280;64252;51.094;13.714;2023-07-20T02:20:42;99912.53;;;17.72;92.37
75656;BME280;64252;51.094;13.714;2023-07-20T02:23:08;99906.16;;;17.80;91.63
75656;BME280;64252;51.094;13.714;2023-07-20T02:25:34;99913.44;;;17.69;92.92
75656;BME280;64252;51.094;13.714;2023-07-20T02:28:00;99917.38;;;17.59;91.43
75656;BME280;64252;51.094;13.714;2023-07-20T02:30:25;99911.28;;;17.73;91.63
75656;BME280;64252;51.094;13.714;2023-07-20T02:32:53;99916.47;;;17.62;90.94
75656;BME280;64252;51.094;13.714;2023-07-20T02:35:18;99922.53;;;17.64;90.82
75656;BME280;64252;51.094;13.714;2023-07-20T02:37:44;99923.25;;;17.68;91.38
75656;BME280;64252;51.094;13.714;2023-07-20T02:40:10;99917.53;;;17.68;90.60
75656;BME280;64252;51.094;13.714;2023-07-20T02:42:37;99920.75;;;17.70;90.97
75656;BME280;64252;51.094;13.714;2023-07-20T02:45:03;99915.38;;;17.72;92.08
75656;BME280;64252;51.094;13.714;2023-07-20T02:47:30;99916.28;;;17.69;92.17
75656;BME280;64252;51.094;13.714;2023-07-20T02:49:57;99911.44;;;17.66;92.42
75656;BME280;64252;51.094;13.714;2023-07-20T02:52:22;99927.53;;;17.60;93.01
75656;BME280;64252;51.094;13.714;2023-07-20T02:54:49;99924.16;;;17.65;92.67
75656;BME280;64252;51.094;13.714;2023-07-20T02:57:15;99932.34;;;17.63;92.96
75656;BME280;64252;51.094;13.714;2023-07-20T02:59:41;99940.09;;;17.62;93.21
75656;BME280;64252;51.094;13.714;2023-07-20T03:02:06;99935.38;;;17.55;93.11
75656;BME280;64252;51.094;13.714;2023-07-20T03:04:35;99942.66;;;17.56;92.88
75656;BME280;64252;51.094;13.714;2023-07-20T03:07:06;99943.22;;;17.51;93.22
75656;BME280;64252;51.094;13.714;2023-07-20T03:09:33;99939.09;;;17.52;92.75
75656;BME280;64252;51.094;13.714;2023-07-20T03:11:59;99948.91;;;17.51;92.47
75656;BME280;64252;51.094;13.714;2023-07-20T03:14:26;99939.09;;;17.52;91.57
75656;BME280;64252;51.094;13.714;2023-07-20T03:16:52;99949.00;;;17.48;91.18
75656;BME280;64252;51.094;13.714;2023-07-20T03:19:18;99949.13;;;17.44;91.80
75656;BME280;64252;51.094;13.714;2023-07-20T03:21:44;99958.22;;;17.39;91.88
75656;BME280;64252;51.094;13.714;2023-07-20T03:24:09;99957.31;;;17.42;91.82
75656;BME280;64252;51.094;13.714;2023-07-20T03:26:36;99956.25;;;17.52;91.91
75656;BME280;64252;51.094;13.714;2023-07-20T03:29:03;99949.81;;;17.48;92.59
75656;BME280;64252;51.094;13.714;2023-07-20T03:31:29;99958.03;;;17.46;93.67
75656;BME280;64252;51.094;13.714;2023-07-20T03:33:55;99959.28;;;17.45;93.20
75656;BME280;64252;51.094;13.714;2023-07-20T03:36:21;99949.13;;;17.44;92.10
75656;BME280;64252;51.094;13.714;2023-07-20T03:38:47;99962.16;;;17.45;92.23
75656;BME280;64252;51.094;13.714;2023-07-20T03:41:14;99969.13;;;17.61;91.70
75656;BME280;64252;51.094;13.714;2023-07-20T03:43:41;99966.88;;;17.68;91.30
75656;BME280;64252;51.094;13.714;2023-07-20T03:46:07;99963.75;;;17.79;90.33
75656;BME280;64252;51.094;13.714;2023-07-20T03:48:33;99954.66;;;17.84;90.04
75656;BME280;64252;51.094;13.714;2023-07-20T03:50:59;99956.75;;;17.96;90.01
75656;BME280;64252;51.094;13.714;2023-07-20T03:53:26;99959.88;;;18.02;89.92
75656;BME280;64252;51.094;13.714;2023-07-20T03:55:53;99958.63;;;18.03;91.32
75656;BME280;64252;51.094;13.714;2023-07-20T03:58:20;99953.09;;;17.95;89.42
75656;BME280;64252;51.094;13.714;2023-07-20T04:00:49;99952.59;;;18.13;88.96
75656;BME280;64252;51.094;13.714;2023-07-20T04:03:16;99961.00;;;18.04;88.18
75656;BME280;64252;51.094;13.714;2023-07-20T04:05:43;99967.22;;;18.15;88.13
75656;BME280;64252;51.094;13.714;2023-07-20T04:08:10;99958.28;;;18.13;87.46
75656;BME280;64252;51.094;13.714;2023-07-20T04:10:42;99957.19;;;18.23;87.04
75656;BME280;64252;51.094;13.714;2023-07-20T04:13:08;99960.16;;;18.20;87.09
75656;BME280;64252;51.094;13.714;2023-07-20T04:15:34;99965.78;;;18.23;86.43
75656;BME280;64252;51.094;13.714;2023-07-20T04:18:00;99963.69;;;18.53;85.69
75656;BME280;64252;51.094;13.714;2023-07-20T04:20:26;99959.63;;;18.54;85.03
75656;BME280;64252;51.094;13.714;2023-07-20T04:22:52;99965.16;;;18.73;84.03
75656;BME280;64252;51.094;13.714;2023-07-20T04:25:19;99962.66;;;19.13;82.71
75656;BME280;64252;51.094;13.714;2023-07-20T04:27:45;99966.88;;;18.96;82.81
75656;BME280;64252;51.094;13.714;2023-07-20T04:30:12;99962.63;;;18.88;83.82
75656;BME280;64252;51.094;13.714;2023-07-20T04:32:38;99965.03;;;18.77;83.27
75656;BME280;64252;51.094;13.714;2023-07-20T04:35:17;99980.94;;;18.91;83.62
75656;BME280;64252;51.094;13.714;2023-07-20T04:37:44;99972.81;;;18.76;83.52
75656;BME280;64252;51.094;13.714;2023-07-20T04:40:15;99975.13;;;18.94;83.45
75656;BME280;64252;51.094;13.714;2023-07-20T04:42:41;99975.34;;;19.00;83.20
75656;BME280;64252;51.094;13.714;2023-07-20T04:45:08;99969.16;;;18.76;83.11
75656;BME280;64252;51.094;13.714;2023-07-20T04:47:35;99975.13;;;18.94;83.15
75656;BME280;64252;51.094;13.714;2023-07-20T04:50:02;99966.19;;;19.05;81.92
75656;BME280;64252;51.094;13.714;2023-07-20T04:52:29;99969.19;;;19.01;81.56
75656;BME280;64252;51.094;13.714;2023-07-20T04:54:56;99963.69;;;19.19;81.61
75656;BME280;64252;51.094;13.714;2023-07-20T04:57:23;99967.34;;;19.20;81.69
75656;BME280;64252;51.094;13.714;2023-07-20T04:59:49;99975.13;;;19.19;81.14
75656;BME280;64252;51.094;13.714;2023-07-20T05:02:15;99977.66;;;19.17;81.53
75656;BME280;64252;51.094;13.714;2023-07-20T05:04:41;99974.88;;;19.26;81.37
75656;BME280;64252;51.094;13.714;2023-07-20T05:07:06;99982.00;;;19.22;80.68
75656;BME280;64252;51.094;13.714;2023-07-20T05:09:32;99983.38;;;19.43;80.15
75656;BME280;64252;51.094;13.714;2023-07-20T05:11:58;99978.69;;;19.49;80.24
75656;BME280;64252;51.094;13.714;2023-07-20T05:14:24;99989.69;;;19.50;79.12
75656;BME280;64252;51.094;13.714;2023-07-20T05:16:51;99979.25;;;19.18;80.07
75656;BME280;64252;51.094;13.714;2023-07-20T05:19:17;99984.06;;;19.21;80.35
75656;BME280;64252;51.094;13.714;2023-07-20T05:21:43;99985.22;;;19.62;79.92
75656;BME280;64252;51.094;13.714;2023-07-20T05:24:09;99985.41;;;19.80;78.52
75656;BME280;64252;51.094;13.714;2023-07-20T05:26:34;99975.78;;;21.66;73.21
75656;BME280;64252;51.094;13.714;2023-07-20T05:29:00;99978.13;;;22.53;67.68
75656;BME280;64252;51.094;13.714;2023-07-20T05:31:26;99983.38;;;22.00;69.07
75656;BME280;64252;51.094;13.714;2023-07-20T05:33:51;99981.53;;;21.75;70.30
75656;BME280;64252;51.094;13.714;2023-07-20T05:36:17;99985.59;;;21.38;70.73
75656;BME280;64252;51.094;13.714;2023-07-20T05:38:43;99985.84;;;21.22;72.47
75656;BME280;64252;51.094;13.714;2023-07-20T05:41:10;99989.34;;;21.17;73.42
75656;BME280;64252;51.094;13.714;2023-07-20T05:43:35;99990.47;;;20.67;72.92
75656;BME280;64252;51.094;13.714;2023-07-20T05:46:01;99994.59;;;20.66;73.51
75656;BME280;64252;51.094;13.714;2023-07-20T05:48:27;99993.41;;;20.32;74.98
75656;BME280;64252;51.094;13.714;2023-07-20T05:50:53;99990.81;;;20.12;75.52
75656;BME280;64252;51.094;13.714;2023-07-20T05:53:19;99988.69;;;20.26;75.52
75656;BME280;64252;51.094;13.714;2023-07-20T05:55:52;99994.16;;;19.98;75.92
75656;BME280;64252;51.094;13.714;2023-07-20T05:58:17;99999.28;;;19.69;76.76
75656;BME280;64252;51.094;13.714;2023-07-20T06:00:43;99990.00;;;19.65;77.30
75656;BME280;64252;51.094;13.714;2023-07-20T06:03:09;99993.50;;;19.94;77.46
75656;BME280;64252;51.094;13.714;2023-07-20T06:05:36;100001.78;;;20.92;75.70
75656;BME280;64252;51.094;13.714;2023-07-20T06:08:02;99999.56;;;21.18;71.46
75656;BME280;64252;51.094;13.714;2023-07-20T06:10:28;100001.81;;;20.70;72.34
75656;BME280;64252;51.094;13.714;2023-07-20T06:12:54;100012.88;;;20.59;73.14
75656;BME280;64252;51.094;13.714;2023-07-20T06:15:33;100016.72;;;20.87;71.81
75656;BME280;64252;51.094;13.714;2023-07-20T06:18:02;100007.78;;;21.86;69.47
75656;BME280;64252;51.094;13.714;2023-07-20T06:20:29;100012.53;;;21.80;66.96
75656;BME280;64252;51.094;13.714;2023-07-20T06:22:56;100013.47;;;21.68;66.61
75656;BME280;64252;51.094;13.714;2023-07-20T06:25:21;100003.59;;;21.69;66.26
75656;BME280;64252;51.094;13.714;2023-07-20T06:27:49;100010.03;;;21.92;67.45
75656;BME280;64252;51.094;13.714;2023-07-20T06:30:19;100011.22;;;22.21;65.03
75656;BME280;64252;51.094;13.714;2023-07-20T06:32:45;100014.09;;;21.63;65.32
75656;BME280;64252;51.094;13.714;2023-07-20T06:35:11;100021.13;;;21.62;65.97
75656;BME280;64252;51.094;13.714;2023-07-20T06:37:37;100024.34;;;21.02;69.75
75656;BME280;64252;51.094;13.714;2023-07-20T06:40:04;100030.78;;;20.29;70.97
75656;BME280;64252;51.094;13.714;2023-07-20T06:42:30;100032.53;;;20.13;72.82
75656;BME280;64252;51.094;13.714;2023-07-20T06:44:57;100039.63;;;19.75;75.31
75656;BME280;64252;51.094;13.714;2023-07-20T06:47:22;100032.19;;;19.52;74.87
75656;BME280;64252;51.094;13.714;2023-07-20T06:49:48;100042.63;;;19.58;75.53
75656;BME280;64252;51.094;13.714;2023-07-20T06:52:14;100039.28;;;19.60;76.10
75656;BME280;64252;51.094;13.714;2023-07-20T06:54:39;100043.75;;;19.86;76.31
75656;BME280;64252;51.094;13.714;2023-07-20T06:57:05;100039.38;;;20.29;74.82
75656;BME280;64252;51.094;13.714;2023-07-20T06:59:31;100038.38;;;20.57;73.57
75656;BME280;64252;51.094;13.714;2023-07-20T07:01:57;100035.31;;;20.95;73.06
75656;BME280;64252;51.094;13.714;2023-07-20T07:04:22;100039.81;;;20.40;72.53
75656;BME280;64252;51.094;13.714;2023-07-20T07:06:48;100039.03;;;20.61;73.10
75656;BME280;64252;51.094;13.714;2023-07-20T07:09:14;100040.63;;;20.84;71.40
75656;BME280;64252;51.094;13.714;2023-07-20T07:11:39;100039.38;;;20.63;71.08
75656;BME280;64252;51.094;13.714;2023-07-20T07:14:05;100033.50;;;20.88;72.47
75656;BME280;64252;51.094;13.714;2023-07-20T07:16:31;100051.38;;;21.14;71.47
75656;BME280;64252;51.094;13.714;2023-07-20T07:18:56;100040.44;;;21.22;70.42
75656;BME280;64252;51.094;13.714;2023-07-20T07:21:22;100040.94;;;21.69;70.10
75656;BME280;64252;51.094;13.714;2023-07-20T07:23:48;100041.53;;;21.55;68.74
75656;BME280;64252;51.094;13.714;2023-07-20T07:26:14;100040.47;;;21.71;68.69
75656;BME280;64252;51.094;13.714;2023-07-20T07:28:40;100045.56;;;22.16;66.24
75656;BME280;64252;51.094;13.714;2023-07-20T07:31:06;100050.22;;;22.31;65.27
75656;BME280;64252;51.094;13.714;2023-07-20T07:33:32;100043.31;;;22.02;63.54
75656;BME280;64252;51.094;13.714;2023-07-20T07:35:58;100052.22;;;21.55;65.21
75656;BME280;64252;51.094;13.714;2023-07-20T07:38:23;100057.69;;;22.11;64.68
75656;BME280;64252;51.094;13.714;2023-07-20T07:40:51;100052.22;;;22.04;65.24
75656;BME280;64252;51.094;13.714;2023-07-20T07:43:16;100055.47;;;22.15;63.94
75656;BME280;64252;51.094;13.714;2023-07-20T07:45:42;100043.50;;;22.53;63.89
75656;BME280;64252;51.094;13.714;2023-07-20T07:48:08;100051.03;;;22.87;62.02
75656;BME280;64252;51.094;13.714;2023-07-20T07:50:36;100045.59;;;22.80;62.35
75656;BME280;64252;51.094;13.714;2023-07-20T07:53:02;100053.22;;;23.10;61.60
75656;BME280;64252;51.094;13.714;2023-07-20T07:55:28;100055.34;;;22.55;62.94
75656;BME280;64252;51.094;13.714;2023-07-20T07:57:54;100051.13;;;23.71;61.12
75656;BME280;64252;51.094;13.714;2023-07-20T08:00:20;100050.09;;;23.83;59.65
75656;BME280;64252;51.094;13.714;2023-07-20T08:02:46;100045.59;;;23.91;58.41
75656;BME280;64252;51.094;13.714;2023-07-20T08:05:14;100049.47;;;23.37;58.28
75656;BME280;64252;51.094;13.714;2023-07-20T08:07:39;100049.06;;;23.11;60.85
75656;BME280;64252;51.094;13.714;2023-07-20T08:10:06;100058.41;;;22.88;60.54
75656;BME280;64252;51.094;13.714;2023-07-20T08:12:32;100046.69;;;23.93;58.94
75656;BME280;64252;51.094;13.714;2023-07-20T08:14:58;100052.09;;;23.26;59.07
75656;BME280;64252;51.094;13.714;2023-07-20T08:17:24;100037.22;;;23.93;58.16
75656;BME280;64252;51.094;13.714;2023-07-20T08:19:49;100044.53;;;24.03;58.53
75656;BME280;64252;51.094;13.714;2023-07-20T08:22:15;100040.97;;;23.42;58.98
75656;BME280;64252;51.094;13.714;2023-07-20T08:24:42;100044.53;;;24.03;58.25
75656;BME280;64252;51.094;13.714;2023-07-20T08:27:08;100049.16;;;24.10;58.06
75656;BME280;64252;51.094;13.714;2023-07-20T08:29:35;100049.13;;;24.42;56.92
75656;BME280;64252;51.094;13.714;2023-07-20T08:32:01;100056.47;;;24.82;56.79
75656;BME280;64252;51.094;13.714;2023-07-20T08:34:27;100051.53;;;24.97;54.55
75656;BME280;64252;51.094;13.714;2023-07-20T08:36:53;100047.44;;;24.89;54.66
75656;BME280;64252;51.094;13.714;2023-07-20T08:39:19;100045.72;;;24.44;55.29
75656;BME280;64252;51.094;13.714;2023-07-20T08:41:48;100041.00;;;24.32;54.04
75656;BME280;64252;51.094;13.714;2023-07-20T08:44:14;100047.47;;;25.18;56.02
75656;BME280;64252;51.094;13.714;2023-07-20T08:46:41;100051.84;;;25.28;53.07
75656;BME280;64252;51.094;13.714;2023-07-20T08:49:08;100034.31;;;25.47;53.98
75656;BME280;64252;51.094;13.714;2023-07-20T08:51:35;100048.97;;;24.99;52.76
75656;BME280;64252;51.094;13.714;2023-07-20T08:54:01;100047.56;;;26.03;51.63
75656;BME280;64252;51.094;13.714;2023-07-20T08:56:27;100058.03;;;25.21;51.51
75656;BME280;64252;51.094;13.714;2023-07-20T08:58:53;100050.66;;;25.35;50.29
75656;BME280;64252;51.094;13.714;2023-07-20T09:01:22;100053.84;;;25.37;50.42
75656;BME280;64252;51.094;13.714;2023-07-20T09:03:51;100055.41;;;24.56;51.64
75656;BME280;64252;51.094;13.714;2023-07-20T09:06:16;100049.16;;;24.10;53.00
75656;BME280;64252;51.094;13.714;2023-07-20T09:08:42;100056.94;;;25.04;51.89
75656;BME280;64252;51.094;13.714;2023-07-20T09:11:11;100050.03;;;25.02;50.95
75656;BME280;64252;51.094;13.714;2023-07-20T09:13:38;100049.78;;;24.76;51.67
75656;BME280;64252;51.094;13.714;2023-07-20T09:16:04;100049.88;;;24.28;52.20
75656;BME280;64252;51.094;13.714;2023-07-20T09:18:32;100043.19;;;24.61;52.83
75656;BME280;64252;51.094;13.714;2023-07-20T09:20:58;100046.59;;;24.74;51.34
75656;BME280;64252;51.094;13.714;2023-07-20T09:23:38;100046.16;;;24.52;51.75
75656;BME280;64252;51.094;13.714;2023-07-20T09:26:13;100042.59;;;24.09;52.85
75656;BME280;64252;51.094;13.714;2023-07-20T09:28:48;100052.13;;;24.48;52.54
75656;BME280;64252;51.094;13.714;2023-07-20T09:31:21;100053.44;;;24.14;53.29
75656;BME280;64252;51.094;13.714;2023-07-20T09:33:49;100061.75;;;24.21;53.23
75656;BME280;64252;51.094;13.714;2023-07-20T09:36:15;100056.00;;;23.55;54.61
75656;BME280;64252;51.094;13.714;2023-07-20T09:38:41;100053.06;;;23.65;54.15
75656;BME280;64252;51.094;13.714;2023-07-20T09:41:13;100061.22;;;23.15;56.33
75656;BME280;64252;51.094;13.714;2023-07-20T09:43:41;100069.47;;;23.40;55.45
75656;BME280;64252;51.094;13.714;2023-07-20T09:46:08;100072.47;;;22.95;57.24
75656;BME280;64252;51.094;13.714;2023-07-20T09:48:34;100070.84;;;22.57;59.44
75656;BME280;64252;51.094;13.714;2023-07-20T09:50:59;100074.97;;;22.20;62.08
75656;BME280;64252;51.094;13.714;2023-07-20T09:53:26;100071.47;;;22.25;63.32
75656;BME280;64252;51.094;13.714;2023-07-20T09:55:53;100080.63;;;21.93;64.42
75656;BME280;64252;51.094;13.714;2023-07-20T09:58:19;100075.69;;;21.53;64.58
75656;BME280;64252;51.094;13.714;2023-07-20T10:00:46;100085.63;;;21.09;66.09
75656;BME280;64252;51.094;13.714;2023-07-20T10:03:20;100092.56;;;20.77;69.19
75656;BME280;64252;51.094;13.714;2023-07-20T10:05:52;100096.66;;;20.54;72.18
75656;BME280;64252;51.094;13.714;2023-07-20T10:08:23;100091.13;;;20.38;71.66
75656;BME280;64252;51.094;13.714;2023-07-20T10:10:49;100078.69;;;20.75;72.55
75656;BME280;64252;51.094;13.714;2023-07-20T10:13:21;100073.59;;;21.01;72.73
75656;BME280;64252;51.094;13.714;2023-07-20T10:15:54;100078.56;;;21.53;72.40
75656;BME280;64252;51.094;13.714;2023-07-20T10:21:34;100089.16;;;22.05;68.90
75656;BME280;64252;51.094;13.714;2023-07-20T10:24:01;100082.69;;;22.41;66.83
75656;BME280;64252;51.094;13.714;2023-07-20T10:26:28;100092.00;;;21.96;66.81
75656;BME280;64252;51.094;13.714;2023-07-20T10:28:55;100090.34;;;21.46;67.27
75656;BME280;64252;51.094;13.714;2023-07-20T10:31:22;100080.16;;;21.54;67.56
75656;BME280;64252;51.094;13.714;2023-07-20T10:33:49;100076.88;;;22.14;67.79
75656;BME280;64252;51.094;13.714;2023-07-20T10:36:16;100085.00;;;21.66;67.44
75656;BME280;64252;51.094;13.714;2023-07-20T10:38:54;100083.84;;;21.95;68.17
75656;BME280;64252;51.094;13.714;2023-07-20T10:41:39;100073.34;;;22.10;65.80
75656;BME280;64252;51.094;13.714;2023-07-20T10:44:09;100075.63;;;22.69;65.83
75656;BME280;64252;51.094;13.714;2023-07-20T10:49:04;100069.41;;;22.98;64.94
75656;BME280;64252;51.094;13.714;2023-07-20T10:51:47;100074.06;;;22.68;63.95
75656;BME280;64252;51.094;13.714;2023-07-20T10:56:43;100063.66;;;22.80;63.60
75656;BME280;64252;51.094;13.714;2023-07-20T11:01:56;100072.13;;;22.56;63.86
75656;BME280;64252;51.094;13.714;2023-07-20T11:04:43;100072.94;;;22.75;62.74
75656;BME280;64252;51.094;13.714;2023-07-20T11:07:09;100070.56;;;22.92;62.10
75656;BME280;64252;51.094;13.714;2023-07-20T11:09:37;100061.91;;;22.55;60.61
75656;BME280;64252;51.094;13.714;2023-07-20T11:12:14;100054.22;;;22.61;61.83
75656;BME280;64252;51.094;13.714;2023-07-20T11:14:53;100058.72;;;22.71;63.36
75656;BME280;64252;51.094;13.714;2023-07-20T11:17:20;100070.56;;;22.83;63.69
75656;BME280;64252;51.094;13.714;2023-07-20T11:19:48;100059.97;;;22.61;65.77
75656;BME280;64252;51.094;13.714;2023-07-20T11:22:19;100059.69;;;22.87;65.17
75656;BME280;64252;51.094;13.714;2023-07-20T11:24:45;100052.66;;;22.88;63.29
75656;BME280;64252;51.094;13.714;2023-07-20T11:27:11;100049.41;;;22.67;63.86
75656;BME280;64252;51.094;13.714;2023-07-20T11:29:37;100053.44;;;23.57;63.52
75656;BME280;64252;51.094;13.714;2023-07-20T11:32:03;100050.56;;;24.14;61.42
75656;BME280;64252;51.094;13.714;2023-07-20T11:34:31;100053.31;;;24.09;59.59
75656;BME280;64252;51.094;13.714;2023-07-20T11:36:57;100052.47;;;24.41;60.34
75656;BME280;64252;51.094;13.714;2023-07-20T11:39:23;100056.50;;;24.43;59.62
75656;BME280;64252;51.094;13.714;2023-07-20T11:41:52;100043.53;;;24.39;58.06
75656;BME280;64252;51.094;13.714;2023-07-20T11:44:21;100046.38;;;24.24;55.57
75656;BME280;64252;51.094;13.714;2023-07-20T11:47:11;100037.56;;;24.81;55.40
75656;BME280;64252;51.094;13.714;2023-07-20T11:49:42;100040.25;;;24.46;56.16
75656;BME280;64252;51.094;13.714;2023-07-20T11:52:10;100042.78;;;24.53;57.33
75656;BME280;64252;51.094;13.714;2023-07-20T11:54:37;100038.25;;;24.76;54.90
75656;BME280;64252;51.094;13.714;2023-07-20T11:57:04;100040.09;;;25.17;55.59
75656;BME280;64252;51.094;13.714;2023-07-20T11:59:31;100047.03;;;24.19;55.29
75656;BME280;64252;51.094;13.714;2023-07-20T12:02:01;100048.63;;;23.87;58.04
75656;BME280;64252;51.094;13.714;2023-07-20T12:04:30;100058.72;;;23.50;59.30
75656;BME280;64252;51.094;13.714;2023-07-20T12:06:56;100059.56;;;23.32;59.90
75656;BME280;64252;51.094;13.714;2023-07-20T12:09:22;100064.81;;;22.83;60.17
75656;BME280;64252;51.094;13.714;2023-07-20T12:11:49;100058.38;;;22.42;61.62
75656;BME280;64252;51.094;13.714;2023-07-20T12:14:16;100060.94;;;22.49;61.52
75656;BME280;64252;51.094;13.714;2023-07-20T12:16:42;100070.78;;;22.03;63.49
75656;BME280;64252;51.094;13.714;2023-07-20T12:19:10;100073.59;;;21.84;65.28
75656;BME280;64252;51.094;13.714;2023-07-20T12:21:38;100068.38;;;21.61;67.38
75656;BME280;64252;51.094;13.714;2023-07-20T12:24:04;100074.97;;;21.40;65.89
75656;BME280;64252;51.094;13.714;2023-07-20T12:26:31;100076.97;;;21.21;67.29
75656;BME280;64252;51.094;13.714;2023-07-20T12:28:58;100083.75;;;21.15;69.66
75656;BME280;64252;51.094;13.714;2023-07-20T12:31:25;100076.53;;;21.32;70.01
75656;BME280;64252;51.094;13.714;2023-07-20T12:33:52;100083.31;;;21.47;70.36
75656;BME280;64252;51.094;13.714;2023-07-20T12:36:18;100084.69;;;21.12;70.01
75656;BME280;64252;51.094;13.714;2023-07-20T12:38:45;100082.66;;;21.43;68.24
75656;BME280;64252;51.094;13.714;2023-07-20T12:41:12;100086.03;;;21.20;68.91
75656;BME280;64252;51.094;13.714;2023-07-20T12:43:42;100090.63;;;20.95;69.00
75656;BME280;64252;51.094;13.714;2023-07-20T12:46:10;100104.06;;;20.98;66.62
75656;BME280;64252;51.094;13.714;2023-07-20T12:48:37;100088.44;;;21.21;67.22
75656;BME280;64252;51.094;13.714;2023-07-20T12:51:04;100100.19;;;21.36;67.60
75656;BME280;64252;51.094;13.714;2023-07-20T12:53:31;100096.31;;;21.61;65.49
75656;BME280;64252;51.094;13.714;2023-07-20T12:56:01;100099.53;;;21.72;66.30
75656;BME280;64252;51.094;13.714;2023-07-20T12:58:27;100102.91;;;22.10;66.83
75656;BME280;64252;51.094;13.714;2023-07-20T13:00:53;100100.84;;;22.20;66.30
75656;BME280;64252;51.094;13.714;2023-07-20T13:03:20;100095.06;;;22.02;67.61
75656;BME280;64252;51.094;13.714;2023-07-20T13:05:46;100096.69;;;22.12;67.97
75656;BME280;64252;51.094;13.714;2023-07-20T13:08:14;100089.84;;;21.78;66.94